Time;durP1;ratioP1;P1;durP2;ratioP2;P2;SDS_P1;SDS_P2;PMS_P1;PMS_P2;Temp;Humidity;BMP_temperature;BMP_pressure;BME280_temperature;BME280_humidity;BME280_pressure;Samples;Min_cycle;Max_cycle;Signal;HPM_P1;HPM_P2
2021/12/25 00:00:16;;;;;;;;;;;;;;;;;;5050967;28;19947;-79
2021/12/25 00:02:42;;;;;;;;;;;;;;;;;;5054165;28;19921;-80
2021/12/25 00:05:08;;;;;;;;;;;;;;;;;;5055853;28;20538;-81
2021/12/25 00:07:33;;;;;;;;;;;;;;;;;;5047719;28;19912;-82
2021/12/25 00:10:05;;;;;;;;;;;;;;;;;;5050735;28;19913;-80
2021/12/25 00:12:31;;;;;;;;;;;;;;;;;;5052134;28;19923;-79
2021/12/25 00:14:57;;;;;;;;;;;;;;;;;;5053372;28;20372;-80
2021/12/25 00:17:22;;;;;;;;;;;;;;;;;;5050099;28;19944;-81
2021/12/25 00:19:48;;;;;;;;;;;;;;;;;;5061499;28;19905;-82
2021/12/25 00:22:13;;;;;;;;;;;;;;;;;;5085715;28;19921;-81
2021/12/25 00:24:43;;;;;;;;;;;;;;;;;;5051467;28;19971;-81
2021/12/25 00:28:02;;;;;;;;;;;;;;;;;;5051679;28;19993;-81
2021/12/25 00:30:10;;;;;;;;;;;;;;;;;;5042012;28;19920;-82
2021/12/25 00:35:11;;;;;;;;;;;;;;;;;;5049287;28;19920;-81
2021/12/25 00:37:36;;;;;;;;;;;;;;;;;;5051104;28;20070;-80
2021/12/25 00:40:02;;;;;;;;;;;;;;;;;;5051546;28;19912;-81
2021/12/25 00:42:27;;;;;;;;;;;;;;;;;;5050728;28;19919;-80
2021/12/25 00:44:53;;;;;;;;;;;;;;;;;;5050443;28;19917;-81
2021/12/25 00:47:18;;;;;;;;;;;;;;;;;;5051580;28;19917;-80
2021/12/25 00:49:43;;;;;;;;;;;;;;;;;;5047861;28;19935;-82
2021/12/25 00:52:09;;;;;;;;;;;;;;;;;;5054572;28;19912;-83
2021/12/25 00:54:34;;;;;;;;;;;;;;;;;;5076688;28;19928;-82
2021/12/25 00:57:00;;;;;;;;;;;;;;;;;;5051078;28;19916;-81
2021/12/25 00:59:25;;;;;;;;;;;;;;;;;;5071823;28;19952;-83
2021/12/25 01:01:50;;;;;;;;;;;;;;;;;;5050982;28;19913;-83
2021/12/25 01:04:15;;;;;;;;;;;;;;;;;;5050161;28;19924;-84
2021/12/25 01:06:41;;;;;;;;;;;;;;;;;;5046499;28;20073;-82
2021/12/25 01:09:08;;;;;;;;;;;;;;;;;;5048548;28;19928;-81
2021/12/25 01:11:35;;;;;;;;;;;;;;;;;;5051243;28;19920;-80
2021/12/25 01:14:11;;;;;;;;;;;;;;;;;;5054563;28;19913;-82
2021/12/25 01:20:16;;;;;;;;;;;;;;;;;;5052026;28;19935;-82
2021/12/25 01:30:14;;;;;;;;;;;;;;;;;;5052880;28;19912;-81
2021/12/25 01:48:34;;;;;;;;;;;;;;;;;;5057665;28;19919;-82
2021/12/25 01:51:01;;;;;;;;;;;;;;;;;;5052129;28;20292;-80
2021/12/25 01:53:27;;;;;;;;;;;;;;;;;;5048170;28;20283;-80
2021/12/25 01:55:52;;;;;;;;;;;;;;;;;;5053773;28;19917;-81
2021/12/25 01:58:20;;;;;;;;;;;;;;;;;;5048052;28;19923;-79
2021/12/25 02:00:50;;;;;;;;;;;;;;;;;;5049334;28;19928;-81
2021/12/25 02:03:17;;;;;;;;;;;;;;;;;;5049625;28;19974;-80
2021/12/25 02:05:42;;;;;;;;;;;;;;;;;;5052070;28;20380;-80
2021/12/25 02:08:08;;;;;;;;;;;;;;;;;;5046087;28;19922;-79
2021/12/25 02:10:34;;;;;;;;;;;;;;;;;;5051055;28;19965;-80
2021/12/25 02:13:05;;;;;;;;;;;;;;;;;;5050558;28;19955;-81
2021/12/25 02:15:31;;;;;;;;;;;;;;;;;;5050789;28;19916;-81
2021/12/25 02:20:51;;;;;;;;;;;;;;;;;;5055795;28;20288;-80
2021/12/25 02:23:19;;;;;;;;;;;;;;;;;;5054302;28;20431;-81
2021/12/25 02:25:45;;;;;;;;;;;;;;;;;;5074864;28;20008;-80
2021/12/25 02:28:12;;;;;;;;;;;;;;;;;;5053701;28;20388;-80
2021/12/25 02:30:38;;;;;;;;;;;;;;;;;;5051504;28;20667;-79
2021/12/25 02:33:03;;;;;;;;;;;;;;;;;;5075258;28;19921;-79
2021/12/25 02:35:29;;;;;;;;;;;;;;;;;;5048412;28;19921;-81
2021/12/25 02:37:54;;;;;;;;;;;;;;;;;;5048067;28;19913;-80
2021/12/25 02:40:20;;;;;;;;;;;;;;;;;;5054884;28;19919;-81
2021/12/25 02:42:45;;;;;;;;;;;;;;;;;;5075086;28;19913;-80
2021/12/25 02:45:16;;;;;;;;;;;;;;;;;;5057766;28;19943;-81
2021/12/25 02:47:43;;;;;;;;;;;;;;;;;;5053529;28;19916;-81
2021/12/25 02:50:09;;;;;;;;;;;;;;;;;;5052136;28;19913;-81
2021/12/25 02:52:35;;;;;;;;;;;;;;;;;;5048603;28;19919;-81
2021/12/25 02:55:00;;;;;;;;;;;;;;;;;;5055679;28;20385;-80
2021/12/25 02:57:25;;;;;;;;;;;;;;;;;;5054675;28;19956;-80
2021/12/25 02:59:51;;;;;;;;;;;;;;;;;;5052999;28;19928;-81
2021/12/25 03:02:16;;;;;;;;;;;;;;;;;;5051169;28;19939;-81
2021/12/25 03:04:43;;;;;;;;;;;;;;;;;;5057230;28;19955;-81
2021/12/25 03:07:10;;;;;;;;;;;;;;;;;;5051674;28;19965;-79
2021/12/25 03:09:35;;;;;;;;;;;;;;;;;;5057402;28;20389;-80
2021/12/25 03:12:03;;;;;;;;;;;;;;;;;;5062229;28;19913;-80
2021/12/25 03:14:39;;;;;;;;;;;;;;;;;;5052500;28;19912;-81
2021/12/25 03:17:04;;;;;;;;;;;;;;;;;;5052921;28;19947;-81
2021/12/25 03:19:34;;;;;;;;;;;;;;;;;;5052792;28;19913;-80
2021/12/25 03:22:00;;;;;;;;;;;;;;;;;;5053944;28;19913;-80
2021/12/25 03:24:26;;;;;;;;;;;;;;;;;;5056690;28;19912;-80
2021/12/25 03:26:54;;;;;;;;;;;;;;;;;;5054537;28;19916;-81
2021/12/25 03:29:20;;;;;;;;;;;;;;;;;;5056899;28;19916;-84
2021/12/25 03:31:46;;;;;;;;;;;;;;;;;;5061698;28;20026;-83
2021/12/25 03:34:13;;;;;;;;;;;;;;;;;;5061631;28;19922;-82
2021/12/25 03:36:39;;;;;;;;;;;;;;;;;;5052930;28;19947;-81
2021/12/25 03:39:06;;;;;;;;;;;;;;;;;;5052838;28;19912;-83
2021/12/25 03:41:31;;;;;;;;;;;;;;;;;;5057875;28;19916;-82
2021/12/25 03:43:57;;;;;;;;;;;;;;;;;;5055082;28;19940;-81
2021/12/25 03:46:23;;;;;;;;;;;;;;;;;;5053164;28;19925;-82
2021/12/25 03:59:16;;;;;;;;;;;;;;;;;;5052146;28;20075;-80
2021/12/25 04:01:47;;;;;;;;;;;;;;;;;;5052240;28;20027;-81
2021/12/25 04:06:45;;;;;;;;;;;;;;;;;;5049835;28;19923;-84
2021/12/25 04:09:21;;;;;;;;;;;;;;;;;;5052981;28;20336;-81
2021/12/25 04:11:49;;;;;;;;;;;;;;;;;;5052147;28;20350;-80
2021/12/25 04:14:15;;;;;;;;;;;;;;;;;;5067696;28;19913;-80
2021/12/25 04:16:40;;;;;;;;;;;;;;;;;;5070636;28;19924;-80
2021/12/25 04:19:06;;;;;;;;;;;;;;;;;;5076492;28;19964;-81
2021/12/25 04:21:32;;;;;;;;;;;;;;;;;;5051331;28;20491;-81
2021/12/25 04:23:57;;;;;;;;;;;;;;;;;;5050714;28;19912;-83
2021/12/25 04:26:26;;;;;;;;;;;;;;;;;;5050925;28;19947;-79
2021/12/25 04:31:49;;;;;;;;;;;;;;;;;;5054301;28;19924;-81
2021/12/25 04:49:02;;;;;;;;;;;;;;;;;;5050823;28;19923;-81
2021/12/25 05:04:11;;;;;;;;;;;;;;;;;;5057397;28;19940;-81
2021/12/25 05:06:37;;;;;;;;;;;;;;;;;;5057367;28;20437;-83
2021/12/25 05:09:02;;;;;;;;;;;;;;;;;;5055263;28;20019;-83
2021/12/25 05:11:27;;;;;;;;;;;;;;;;;;5054774;28;19912;-82
2021/12/25 05:13:53;;;;;;;;;;;;;;;;;;5053187;28;19916;-83
2021/12/25 05:16:18;;;;;;;;;;;;;;;;;;5058603;28;19997;-81
2021/12/25 05:18:44;;;;;;;;;;;;;;;;;;5054819;28;19912;-81
2021/12/25 05:21:09;;;;;;;;;;;;;;;;;;5055471;28;19966;-80
2021/12/25 05:23:36;;;;;;;;;;;;;;;;;;5052481;28;20003;-79
2021/12/25 05:26:04;;;;;;;;;;;;;;;;;;5054252;28;20372;-83
2021/12/25 05:28:38;;;;;;;;;;;;;;;;;;5051744;28;19924;-79
2021/12/25 05:31:04;;;;;;;;;;;;;;;;;;5085214;28;19996;-81
2021/12/25 05:33:31;;;;;;;;;;;;;;;;;;5057434;28;19951;-82
2021/12/25 05:35:56;;;;;;;;;;;;;;;;;;5050504;28;19927;-83
2021/12/25 05:38:22;;;;;;;;;;;;;;;;;;5076238;28;19912;-84
2021/12/25 05:40:48;;;;;;;;;;;;;;;;;;5075130;28;19917;-81
2021/12/25 05:43:13;;;;;;;;;;;;;;;;;;5053359;28;20342;-81
2021/12/25 05:45:38;;;;;;;;;;;;;;;;;;5052268;28;19920;-83
2021/12/25 05:48:04;;;;;;;;;;;;;;;;;;5046835;28;20007;-82
2021/12/25 05:50:30;;;;;;;;;;;;;;;;;;5050901;28;19913;-83
2021/12/25 05:52:56;;;;;;;;;;;;;;;;;;5054270;28;19916;-81
2021/12/25 05:55:22;;;;;;;;;;;;;;;;;;5052908;28;19912;-82
2021/12/25 05:57:47;;;;;;;;;;;;;;;;;;5051433;28;19927;-81
2021/12/25 06:00:13;;;;;;;;;;;;;;;;;;5053571;28;19992;-82
2021/12/25 06:02:38;;;;;;;;;;;;;;;;;;5053081;28;19958;-82
2021/12/25 06:05:04;;;;;;;;;;;;;;;;;;5053199;28;20792;-80
2021/12/25 06:07:31;;;;;;;;;;;;;;;;;;5052829;28;19938;-81
2021/12/25 06:09:56;;;;;;;;;;;;;;;;;;5049116;28;19919;-79
2021/12/25 06:12:22;;;;;;;;;;;;;;;;;;5048763;28;19916;-79
2021/12/25 06:14:48;;;;;;;;;;;;;;;;;;5049715;28;20003;-78
2021/12/25 06:17:13;;;;;;;;;;;;;;;;;;5050977;28;19951;-77
2021/12/25 06:19:39;;;;;;;;;;;;;;;;;;5053373;28;19913;-78
2021/12/25 06:22:04;;;;;;;;;;;;;;;;;;5083194;28;19912;-77
2021/12/25 06:24:30;;;;;;;;;;;;;;;;;;5065958;28;19901;-78
2021/12/25 06:26:55;;;;;;;;;;;;;;;;;;5083069;28;20384;-76
2021/12/25 06:29:22;;;;;;;;;;;;;;;;;;5059621;28;19966;-77
2021/12/25 06:31:48;;;;;;;;;;;;;;;;;;5051705;28;19913;-78
2021/12/25 06:34:13;;;;;;;;;;;;;;;;;;5051678;28;20424;-80
2021/12/25 06:36:38;;;;;;;;;;;;;;;;;;5049313;28;19920;-79
2021/12/25 06:39:04;;;;;;;;;;;;;;;;;;5051193;28;19955;-79
2021/12/25 06:41:31;;;;;;;;;;;;;;;;;;5053747;28;20008;-77
2021/12/25 06:43:58;;;;;;;;;;;;;;;;;;5050199;28;19912;-78
2021/12/25 06:46:23;;;;;;;;;;;;;;;;;;5049922;28;20011;-78
2021/12/25 06:48:49;;;;;;;;;;;;;;;;;;5051063;28;19956;-79
2021/12/25 06:51:14;;;;;;;;;;;;;;;;;;5050262;28;20522;-79
2021/12/25 06:53:39;;;;;;;;;;;;;;;;;;5044815;28;19923;-80
2021/12/25 06:56:05;;;;;;;;;;;;;;;;;;5048551;28;19928;-81
2021/12/25 06:58:30;;;;;;;;;;;;;;;;;;5049315;28;19966;-82
2021/12/25 07:00:55;;;;;;;;;;;;;;;;;;5047261;28;19920;-77
2021/12/25 07:03:21;;;;;;;;;;;;;;;;;;5049651;28;19920;-79
2021/12/25 07:05:46;;;;;;;;;;;;;;;;;;5051141;28;19923;-80
2021/12/25 07:08:11;;;;;;;;;;;;;;;;;;5043896;28;19912;-78
2021/12/25 07:10:37;;;;;;;;;;;;;;;;;;5049095;28;19955;-80
2021/12/25 07:13:02;;;;;;;;;;;;;;;;;;5050527;28;19916;-80
2021/12/25 07:15:28;;;;;;;;;;;;;;;;;;5048860;28;19920;-79
2021/12/25 07:17:55;;;;;;;;;;;;;;;;;;5048954;28;19926;-82
2021/12/25 07:20:21;;;;;;;;;;;;;;;;;;5049049;28;19920;-81
2021/12/25 07:22:46;;;;;;;;;;;;;;;;;;5052880;28;19916;-79
2021/12/25 07:25:14;;;;;;;;;;;;;;;;;;5051528;28;19939;-82
2021/12/25 07:27:39;;;;;;;;;;;;;;;;;;5055458;28;19920;-80
2021/12/25 07:30:06;;;;;;;;;;;;;;;;;;5052009;28;19912;-83
2021/12/25 07:32:31;;;;;;;;;;;;;;;;;;5073944;28;19912;-81
2021/12/25 07:34:58;;;;;;;;;;;;;;;;;;5047901;28;19921;-79
2021/12/25 07:37:24;;;;;;;;;;;;;;;;;;5052660;28;19939;-79
2021/12/25 07:39:49;;;;;;;;;;;;;;;;;;5051802;28;19978;-77
2021/12/25 07:42:15;;;;;;;;;;;;;;;;;;5079100;28;20252;-77
2021/12/25 07:44:42;;;;;;;;;;;;;;;;;;5052818;28;19917;-77
2021/12/25 07:47:10;;;;;;;;;;;;;;;;;;5052155;28;19912;-78
2021/12/25 07:49:36;;;;;;;;;;;;;;;;;;5062790;28;19956;-80
2021/12/25 07:52:02;;;;;;;;;;;;;;;;;;5055680;28;19913;-81
2021/12/25 07:54:27;;;;;;;;;;;;;;;;;;5063255;28;19909;-81
2021/12/25 07:56:54;;;;;;;;;;;;;;;;;;5061425;28;19924;-81
2021/12/25 07:59:20;;;;;;;;;;;;;;;;;;5060201;28;19928;-80
2021/12/25 08:01:48;;;;;;;;;;;;;;;;;;5057066;28;19920;-81
2021/12/25 08:04:14;;;;;;;;;;;;;;;;;;5054890;28;21165;-86
2021/12/25 08:06:39;;;;;;;;;;;;;;;;;;5058331;28;19956;-80
2021/12/25 08:09:05;;;;;;;;;;;;;;;;;;5057159;28;19912;-81
2021/12/25 08:11:30;;;;;;;;;;;;;;;;;;5055770;28;20011;-80
2021/12/25 08:13:56;;;;;;;;;;;;;;;;;;5063557;28;19917;-80
2021/12/25 08:16:21;;;;;;;;;;;;;;;;;;5057612;28;19921;-78
2021/12/25 08:18:46;;;;;;;;;;;;;;;;;;5060338;28;19912;-79
2021/12/25 08:21:14;;;;;;;;;;;;;;;;;;5057560;28;19920;-80
2021/12/25 08:23:40;;;;;;;;;;;;;;;;;;5068550;28;19920;-80
2021/12/25 08:26:06;;;;;;;;;;;;;;;;;;5055169;28;19912;-81
2021/12/25 08:28:31;;;;;;;;;;;;;;;;;;5057916;28;19973;-80
2021/12/25 08:30:59;;;;;;;;;;;;;;;;;;5060050;28;20000;-80
2021/12/25 08:33:24;;;;;;;;;;;;;;;;;;5073845;28;19944;-80
2021/12/25 08:35:50;;;;;;;;;;;;;;;;;;5092592;28;19909;-77
2021/12/25 08:38:15;;;;;;;;;;;;;;;;;;5068559;28;19912;-81
2021/12/25 08:40:42;;;;;;;;;;;;;;;;;;5070593;28;20000;-80
2021/12/25 08:43:07;;;;;;;;;;;;;;;;;;5086608;28;19916;-79
2021/12/25 08:48:06;;;;;;;;;;;;;;;;;;5072613;28;20098;-78
2021/12/25 08:50:32;;;;;;;;;;;;;;;;;;5091398;28;20039;-78
2021/12/25 08:52:57;;;;;;;;;;;;;;;;;;5055962;28;20419;-79
2021/12/25 08:55:25;;;;;;;;;;;;;;;;;;5052166;28;19916;-80
2021/12/25 08:57:51;;;;;;;;;;;;;;;;;;5053221;28;19920;-78
2021/12/25 09:00:19;;;;;;;;;;;;;;;;;;5059144;28;20051;-78
2021/12/25 09:02:45;;;;;;;;;;;;;;;;;;5058374;28;19920;-79
2021/12/25 09:05:11;;;;;;;;;;;;;;;;;;5055295;28;19962;-79
2021/12/25 09:07:36;;;;;;;;;;;;;;;;;;5051868;28;19917;-79
2021/12/25 09:10:04;;;;;;;;;;;;;;;;;;5053383;28;19912;-79
2021/12/25 09:12:32;;;;;;;;;;;;;;;;;;5054156;28;19965;-79
2021/12/25 09:14:57;;;;;;;;;;;;;;;;;;5049126;28;19920;-78
2021/12/25 09:17:23;;;;;;;;;;;;;;;;;;5056905;28;19928;-79
2021/12/25 09:19:48;;;;;;;;;;;;;;;;;;5068463;28;20402;-80
2021/12/25 09:22:13;;;;;;;;;;;;;;;;;;5053409;28;20016;-78
2021/12/25 09:24:39;;;;;;;;;;;;;;;;;;5058379;28;19924;-78
2021/12/25 09:27:05;;;;;;;;;;;;;;;;;;5055996;28;19913;-79
2021/12/25 09:29:31;;;;;;;;;;;;;;;;;;5049560;28;20406;-79
2021/12/25 09:31:57;;;;;;;;;;;;;;;;;;5045481;28;19943;-78
2021/12/25 09:34:22;;;;;;;;;;;;;;;;;;5052920;28;19908;-79
2021/12/25 09:36:51;;;;;;;;;;;;;;;;;;5052223;28;20391;-78
2021/12/25 09:39:19;;;;;;;;;;;;;;;;;;5053791;28;19924;-79
2021/12/25 09:41:45;;;;;;;;;;;;;;;;;;5058169;28;19921;-79
2021/12/25 09:44:10;;;;;;;;;;;;;;;;;;5053707;28;19923;-79
2021/12/25 09:46:36;;;;;;;;;;;;;;;;;;5054384;28;20367;-80
2021/12/25 09:49:01;;;;;;;;;;;;;;;;;;5060711;28;19913;-80
2021/12/25 09:51:29;;;;;;;;;;;;;;;;;;5057167;28;20300;-79
2021/12/25 09:54:01;;;;;;;;;;;;;;;;;;5057554;28;20403;-78
2021/12/25 09:56:31;;;;;;;;;;;;;;;;;;5053373;28;19913;-79
2021/12/25 09:58:56;;;;;;;;;;;;;;;;;;5054713;28;20011;-79
2021/12/25 10:01:42;;;;;;;;;;;;;;;;;;5060420;28;20388;-79
2021/12/25 10:04:08;;;;;;;;;;;;;;;;;;5061536;28;20529;-80
2021/12/25 10:06:40;;;;;;;;;;;;;;;;;;5059184;28;20703;-79
2021/12/25 10:09:20;;;;;;;;;;;;;;;;;;5057759;28;19917;-79
2021/12/25 10:12:02;;;;;;;;;;;;;;;;;;5050845;28;20339;-79
2021/12/25 10:14:28;;;;;;;;;;;;;;;;;;5058500;28;19958;-79
2021/12/25 10:16:53;;;;;;;;;;;;;;;;;;5060465;28;19916;-79
2021/12/25 10:19:23;;;;;;;;;;;;;;;;;;5058476;28;20026;-80
2021/12/25 10:22:01;;;;;;;;;;;;;;;;;;5059818;28;19912;-79
2021/12/25 10:24:26;;;;;;;;;;;;;;;;;;5059240;28;19917;-79
2021/12/25 10:26:52;;;;;;;;;;;;;;;;;;5055677;28;19991;-78
2021/12/25 10:29:20;;;;;;;;;;;;;;;;;;5053652;28;19909;-78
2021/12/25 10:31:46;;;;;;;;;;;;;;;;;;5058336;28;19913;-79
2021/12/25 10:34:15;;;;;;;;;;;;;;;;;;5058437;28;19920;-79
2021/12/25 10:36:41;;;;;;;;;;;;;;;;;;5055719;28;20027;-78
2021/12/25 10:39:17;;;;;;;;;;;;;;;;;;5052275;28;19912;-79
2021/12/25 10:42:10;;;;;;;;;;;;;;;;;;5049843;28;20011;-79
2021/12/25 10:44:37;;;;;;;;;;;;;;;;;;5059983;28;19921;-79
2021/12/25 10:47:12;;;;;;;;;;;;;;;;;;5057707;28;19913;-79
2021/12/25 10:49:42;;;;;;;;;;;;;;;;;;5060476;28;19988;-79
2021/12/25 10:52:29;;;;;;;;;;;;;;;;;;5053140;28;19920;-78
2021/12/25 10:55:03;;;;;;;;;;;;;;;;;;5042154;28;20003;-79
2021/12/25 10:57:55;;;;;;;;;;;;;;;;;;5054821;28;20189;-79
2021/12/25 11:00:20;;;;;;;;;;;;;;;;;;5057433;28;20070;-79
2021/12/25 11:02:47;;;;;;;;;;;;;;;;;;5054884;28;20380;-78
2021/12/25 11:05:22;;;;;;;;;;;;;;;;;;5051503;28;19920;-80
2021/12/25 11:08:01;;;;;;;;;;;;;;;;;;5057555;28;20514;-79
2021/12/25 11:10:29;;;;;;;;;;;;;;;;;;5060581;28;19916;-79
2021/12/25 11:12:55;;;;;;;;;;;;;;;;;;5058212;28;19913;-80
2021/12/25 11:15:21;;;;;;;;;;;;;;;;;;5063276;28;19923;-79
2021/12/25 11:17:51;;;;;;;;;;;;;;;;;;5070891;28;19920;-79
2021/12/25 11:20:25;;;;;;;;;;;;;;;;;;5096760;28;19923;-79
2021/12/25 11:22:55;;;;;;;;;;;;;;;;;;5057149;28;20328;-77
2021/12/25 11:25:25;;;;;;;;;;;;;;;;;;5080517;28;19920;-79
2021/12/25 11:27:51;;;;;;;;;;;;;;;;;;5056383;28;20299;-78
2021/12/25 11:30:18;;;;;;;;;;;;;;;;;;5051785;28;19912;-79
2021/12/25 11:32:43;;;;;;;;;;;;;;;;;;5054683;28;19924;-78
2021/12/25 11:35:10;;;;;;;;;;;;;;;;;;5054725;28;20046;-78
2021/12/25 11:37:36;;;;;;;;;;;;;;;;;;5052571;28;19913;-77
2021/12/25 11:40:01;;;;;;;;;;;;;;;;;;5053971;28;19913;-78
2021/12/25 11:42:28;;;;;;;;;;;;;;;;;;5051760;28;20357;-80
2021/12/25 11:44:55;;;;;;;;;;;;;;;;;;5073119;28;20273;-78
2021/12/25 11:47:41;;;;;;;;;;;;;;;;;;5051698;28;19996;-80
2021/12/25 11:50:15;;;;;;;;;;;;;;;;;;5055428;28;19912;-80
2021/12/25 11:52:53;;;;;;;;;;;;;;;;;;5055428;28;19920;-79
2021/12/25 11:55:34;;;;;;;;;;;;;;;;;;5054296;28;19921;-79
2021/12/25 11:58:17;;;;;;;;;;;;;;;;;;5054971;28;19929;-79
2021/12/25 12:00:44;;;;;;;;;;;;;;;;;;5057234;28;19987;-77
2021/12/25 12:03:29;;;;;;;;;;;;;;;;;;5082196;28;20303;-77
2021/12/25 12:05:54;;;;;;;;;;;;;;;;;;5052988;28;19913;-78
2021/12/25 12:08:23;;;;;;;;;;;;;;;;;;5051296;28;19912;-79
2021/12/25 12:10:49;;;;;;;;;;;;;;;;;;5055340;28;19935;-78
2021/12/25 12:13:16;;;;;;;;;;;;;;;;;;5052149;28;19909;-78
2021/12/25 12:15:46;;;;;;;;;;;;;;;;;;5052176;28;20276;-79
2021/12/25 12:18:24;;;;;;;;;;;;;;;;;;5048195;28;19916;-78
2021/12/25 12:20:50;;;;;;;;;;;;;;;;;;5046264;28;20006;-79
2021/12/25 12:26:41;;;;;;;;;;;;;;;;;;5043692;28;19986;-81
2021/12/25 12:29:07;;;;;;;;;;;;;;;;;;5052585;28;19917;-82
2021/12/25 12:31:40;;;;;;;;;;;;;;;;;;5047177;28;19978;-77
2021/12/25 12:34:25;;;;;;;;;;;;;;;;;;5055228;28;19925;-81
2021/12/25 12:36:50;;;;;;;;;;;;;;;;;;5051833;28;19916;-80
2021/12/25 12:39:18;;;;;;;;;;;;;;;;;;5052179;28;20007;-82
2021/12/25 12:41:51;;;;;;;;;;;;;;;;;;5053413;28;20414;-81
2021/12/25 12:44:25;;;;;;;;;;;;;;;;;;5064440;28;19962;-87
2021/12/25 12:46:50;;;;;;;;;;;;;;;;;;5098656;28;19939;-84
2021/12/25 12:49:19;;;;;;;;;;;;;;;;;;5058469;28;20360;-81
2021/12/25 12:51:45;;;;;;;;;;;;;;;;;;5083942;28;20035;-84
2021/12/25 12:54:10;;;;;;;;;;;;;;;;;;5061247;28;19948;-86
2021/12/25 12:56:55;;;;;;;;;;;;;;;;;;5059486;28;20398;-82
2021/12/25 12:59:21;;;;;;;;;;;;;;;;;;5065291;28;19935;-85
2021/12/25 13:01:46;;;;;;;;;;;;;;;;;;5055776;28;20375;-81
2021/12/25 13:04:12;;;;;;;;;;;;;;;;;;5055351;28;19923;-81
2021/12/25 13:06:39;;;;;;;;;;;;;;;;;;5062068;28;19920;-85
2021/12/25 13:09:08;;;;;;;;;;;;;;;;;;5062059;28;19912;-86
2021/12/25 13:11:42;;;;;;;;;;;;;;;;;;5059357;28;19909;-82
2021/12/25 13:14:09;;;;;;;;;;;;;;;;;;5060867;28;19908;-85
2021/12/25 13:16:36;;;;;;;;;;;;;;;;;;5079783;28;19950;-81
2021/12/25 13:19:05;;;;;;;;;;;;;;;;;;5063599;28;20326;-85
2021/12/25 13:21:31;;;;;;;;;;;;;;;;;;5068719;28;20393;-80
2021/12/25 13:23:58;;;;;;;;;;;;;;;;;;5060719;28;19951;-81
2021/12/25 13:26:34;;;;;;;;;;;;;;;;;;5060505;28;19927;-83
2021/12/25 13:29:00;;;;;;;;;;;;;;;;;;5059210;28;19916;-80
2021/12/25 13:31:27;;;;;;;;;;;;;;;;;;5057126;28;19939;-83
2021/12/25 13:33:54;;;;;;;;;;;;;;;;;;5061660;28;19912;-83
2021/12/25 13:36:25;;;;;;;;;;;;;;;;;;5059635;28;19965;-83
2021/12/25 13:38:50;;;;;;;;;;;;;;;;;;5062103;28;19913;-83
2021/12/25 13:41:26;;;;;;;;;;;;;;;;;;5056598;28;19945;-81
2021/12/25 13:44:15;;;;;;;;;;;;;;;;;;5078785;28;19996;-80
2021/12/25 13:46:40;;;;;;;;;;;;;;;;;;5072827;28;19947;-84
2021/12/25 13:49:06;;;;;;;;;;;;;;;;;;5054469;28;19919;-80
2021/12/25 13:51:32;;;;;;;;;;;;;;;;;;5059373;28;19913;-82
2021/12/25 13:53:57;;;;;;;;;;;;;;;;;;5061898;28;19924;-84
2021/12/25 13:56:23;;;;;;;;;;;;;;;;;;5059225;28;19920;-83
2021/12/25 13:58:48;;;;;;;;;;;;;;;;;;5059201;28;19924;-81
2021/12/25 14:01:15;;;;;;;;;;;;;;;;;;5060060;28;20055;-82
2021/12/25 14:03:42;;;;;;;;;;;;;;;;;;5052081;28;20404;-83
2021/12/25 14:06:07;;;;;;;;;;;;;;;;;;5056008;28;19912;-84
2021/12/25 14:08:33;;;;;;;;;;;;;;;;;;5078408;28;20526;-86
2021/12/25 14:11:02;;;;;;;;;;;;;;;;;;5083661;28;20003;-83
2021/12/25 14:13:31;;;;;;;;;;;;;;;;;;5057162;28;19913;-84
2021/12/25 14:15:58;;;;;;;;;;;;;;;;;;5054342;28;19963;-81
2021/12/25 14:18:30;;;;;;;;;;;;;;;;;;5056498;28;20473;-87
2021/12/25 14:21:10;;;;;;;;;;;;;;;;;;5059131;28;19920;-86
2021/12/25 14:23:36;;;;;;;;;;;;;;;;;;5054885;28;19927;-85
2021/12/25 14:26:01;;;;;;;;;;;;;;;;;;5049309;28;19913;-81
2021/12/25 14:28:34;;;;;;;;;;;;;;;;;;5051702;28;19913;-81
2021/12/25 14:30:59;;;;;;;;;;;;;;;;;;5051156;28;19919;-83
2021/12/25 14:33:28;;;;;;;;;;;;;;;;;;5048109;28;20007;-82
2021/12/25 14:35:53;;;;;;;;;;;;;;;;;;5049020;28;19917;-83
2021/12/25 14:38:21;;;;;;;;;;;;;;;;;;5057025;28;19920;-82
2021/12/25 14:40:49;;;;;;;;;;;;;;;;;;5053886;28;19912;-81
2021/12/25 14:43:28;;;;;;;;;;;;;;;;;;5050219;28;19920;-83
2021/12/25 14:45:55;;;;;;;;;;;;;;;;;;5049275;28;19925;-84
2021/12/25 14:48:25;;;;;;;;;;;;;;;;;;5072604;28;19908;-82
2021/12/25 14:53:54;;;;;;;;;;;;;;;;;;5049009;28;20315;-82
2021/12/25 14:56:21;;;;;;;;;;;;;;;;;;5063648;28;19916;-83
2021/12/25 14:58:49;;;;;;;;;;;;;;;;;;5083374;28;19988;-80
2021/12/25 15:01:17;;;;;;;;;;;;;;;;;;5063685;28;19970;-83
2021/12/25 15:03:44;;;;;;;;;;;;;;;;;;5065535;28;19920;-82
2021/12/25 15:06:18;;;;;;;;;;;;;;;;;;5087802;28;19917;-83
2021/12/25 15:08:44;;;;;;;;;;;;;;;;;;5065508;28;19971;-83
2021/12/25 15:11:14;;;;;;;;;;;;;;;;;;5064218;28;19926;-83
2021/12/25 15:13:40;;;;;;;;;;;;;;;;;;5062608;28;19921;-83
2021/12/25 15:16:06;;;;;;;;;;;;;;;;;;5065881;28;19920;-82
2021/12/25 15:18:34;;;;;;;;;;;;;;;;;;5087162;28;19912;-83
2021/12/25 15:21:07;;;;;;;;;;;;;;;;;;5090173;28;19920;-81
2021/12/25 15:23:32;;;;;;;;;;;;;;;;;;5058593;28;19920;-81
2021/12/25 15:26:09;;;;;;;;;;;;;;;;;;5054939;28;19935;-81
2021/12/25 15:28:35;;;;;;;;;;;;;;;;;;5057398;28;20670;-81
2021/12/25 15:31:03;;;;;;;;;;;;;;;;;;5063663;28;19917;-83
2021/12/25 15:33:28;;;;;;;;;;;;;;;;;;5058882;28;21429;-83
2021/12/25 15:35:54;;;;;;;;;;;;;;;;;;5050003;28;20044;-82
2021/12/25 15:38:25;;;;;;;;;;;;;;;;;;5065056;28;19916;-82
2021/12/25 15:40:53;;;;;;;;;;;;;;;;;;5087107;28;19971;-82
2021/12/25 15:43:21;;;;;;;;;;;;;;;;;;5064339;28;19984;-80
2021/12/25 15:45:46;;;;;;;;;;;;;;;;;;5057255;28;20012;-82
2021/12/25 15:48:14;;;;;;;;;;;;;;;;;;5067064;28;20058;-83
2021/12/25 15:50:42;;;;;;;;;;;;;;;;;;5063231;28;19937;-83
2021/12/25 15:53:07;;;;;;;;;;;;;;;;;;5065015;28;19939;-81
2021/12/25 15:55:33;;;;;;;;;;;;;;;;;;5062495;28;19912;-83
2021/12/25 15:58:06;;;;;;;;;;;;;;;;;;5063722;28;19984;-83
2021/12/25 16:00:32;;;;;;;;;;;;;;;;;;5063875;28;19913;-81
2021/12/25 16:02:58;;;;;;;;;;;;;;;;;;5070353;28;19943;-82
2021/12/25 16:05:23;;;;;;;;;;;;;;;;;;5087467;28;19976;-82
2021/12/25 16:07:49;;;;;;;;;;;;;;;;;;5065920;28;19912;-83
2021/12/25 16:10:16;;;;;;;;;;;;;;;;;;5069412;28;19967;-83
2021/12/25 16:12:42;;;;;;;;;;;;;;;;;;5068017;28;19938;-85
2021/12/25 16:15:07;;;;;;;;;;;;;;;;;;5070570;28;19912;-81
2021/12/25 16:17:33;;;;;;;;;;;;;;;;;;5059988;28;19931;-83
2021/12/25 16:19:58;;;;;;;;;;;;;;;;;;5051466;28;19951;-81
2021/12/25 16:22:24;;;;;;;;;;;;;;;;;;5051805;28;20292;-81
2021/12/25 16:24:49;;;;;;;;;;;;;;;;;;5047086;28;19974;-82
2021/12/25 16:27:17;;;;;;;;;;;;;;;;;;5051299;28;19966;-83
2021/12/25 16:29:42;;;;;;;;;;;;;;;;;;5052339;28;19913;-83
2021/12/25 16:32:07;;;;;;;;;;;;;;;;;;5070992;28;19927;-83
2021/12/25 16:34:33;;;;;;;;;;;;;;;;;;5059244;28;19923;-82
2021/12/25 16:36:58;;;;;;;;;;;;;;;;;;5055028;28;19912;-80
2021/12/25 16:39:26;;;;;;;;;;;;;;;;;;5056976;28;19962;-81
2021/12/25 16:41:52;;;;;;;;;;;;;;;;;;5046906;28;19913;-79
2021/12/25 16:44:18;;;;;;;;;;;;;;;;;;5055315;28;20391;-81
2021/12/25 16:46:46;;;;;;;;;;;;;;;;;;5063056;28;19940;-78
2021/12/25 16:49:12;;;;;;;;;;;;;;;;;;5050504;28;19967;-82
2021/12/25 16:51:41;;;;;;;;;;;;;;;;;;5053365;28;19959;-79
2021/12/25 16:54:07;;;;;;;;;;;;;;;;;;5079428;28;19928;-80
2021/12/25 16:56:32;;;;;;;;;;;;;;;;;;5076027;28;19909;-82
2021/12/25 16:58:57;;;;;;;;;;;;;;;;;;5053988;28;20014;-79
2021/12/25 17:01:23;;;;;;;;;;;;;;;;;;5051805;28;19931;-79
2021/12/25 17:03:49;;;;;;;;;;;;;;;;;;5049297;28;19921;-77
2021/12/25 17:06:15;;;;;;;;;;;;;;;;;;5053542;28;19920;-81
2021/12/25 17:08:41;;;;;;;;;;;;;;;;;;5051208;28;19952;-83
2021/12/25 17:11:07;;;;;;;;;;;;;;;;;;5076396;28;19986;-84
2021/12/25 17:13:33;;;;;;;;;;;;;;;;;;5049507;28;20027;-82
2021/12/25 17:15:59;;;;;;;;;;;;;;;;;;5047313;28;19916;-79
2021/12/25 17:18:25;;;;;;;;;;;;;;;;;;5051492;28;19996;-78
2021/12/25 17:20:50;;;;;;;;;;;;;;;;;;5056193;28;20019;-79
2021/12/25 17:23:19;;;;;;;;;;;;;;;;;;5047940;28;20291;-80
2021/12/25 17:25:45;;;;;;;;;;;;;;;;;;5047370;28;20360;-79
2021/12/25 17:28:10;;;;;;;;;;;;;;;;;;5049777;28;19921;-79
2021/12/25 17:30:44;;;;;;;;;;;;;;;;;;5051915;28;19916;-81
2021/12/25 17:33:12;;;;;;;;;;;;;;;;;;5047310;28;19961;-82
2021/12/25 17:35:38;;;;;;;;;;;;;;;;;;5047713;28;20048;-82
2021/12/25 17:38:05;;;;;;;;;;;;;;;;;;5052845;28;20470;-81
2021/12/25 17:40:34;;;;;;;;;;;;;;;;;;5045955;28;20019;-81
2021/12/25 17:43:00;;;;;;;;;;;;;;;;;;5051678;28;20132;-81
2021/12/25 17:45:26;;;;;;;;;;;;;;;;;;5050748;28;19982;-80
2021/12/25 17:47:53;;;;;;;;;;;;;;;;;;5047681;28;19920;-81
2021/12/25 17:50:20;;;;;;;;;;;;;;;;;;5071718;28;19920;-80
2021/12/25 17:52:45;;;;;;;;;;;;;;;;;;5058719;28;19924;-81
2021/12/25 17:55:13;;;;;;;;;;;;;;;;;;5063920;28;19925;-80
2021/12/25 17:57:39;;;;;;;;;;;;;;;;;;5047049;28;19927;-80
2021/12/25 18:00:06;;;;;;;;;;;;;;;;;;5045875;28;19920;-81
2021/12/25 18:02:34;;;;;;;;;;;;;;;;;;5053672;28;19912;-79
2021/12/25 18:05:03;;;;;;;;;;;;;;;;;;5054643;28;19923;-80
2021/12/25 18:07:28;;;;;;;;;;;;;;;;;;5046169;28;19944;-80
2021/12/25 18:09:54;;;;;;;;;;;;;;;;;;5053550;28;19959;-79
2021/12/25 18:12:19;;;;;;;;;;;;;;;;;;5049564;28;20387;-80